Time;durP1;ratioP1;P1;durP2;ratioP2;P2;SDS_P1;SDS_P2;PMS_P1;PMS_P2;Temp;Humidity;BMP_temperature;BMP_pressure;BME280_temperature;BME280_humidity;BME280_pressure;Samples;Min_cycle;Max_cycle;Signal;HPM_P1;HPM_P2
2021/03/03 00:00:00;;;;;;;;;;;2.40;99.90;;;;;;5094949;28;20327;-60
2021/03/03 00:02:26;;;;;;;27.20;12.50;;;2.50;99.90;;;;;;5094393;28;20043;-60
2021/03/03 00:04:52;;;;;;;;;;;2.50;99.90;;;;;;5094236;28;20257;-60
2021/03/03 00:07:18;;;;;;;;;;;2.40;99.90;;;;;;5094741;28;20242;-60
2021/03/03 00:09:44;;;;;;;;;;;2.40;99.90;;;;;;5094355;28;19908;-60
2021/03/03 00:12:10;;;;;;;;;;;2.40;99.90;;;;;;5094244;28;19920;-60
2021/03/03 00:14:36;;;;;;;;;;;2.30;99.90;;;;;;5094310;28;20283;-60
2021/03/03 00:17:02;;;;;;;;;;;2.30;99.90;;;;;;5076362;28;19915;-60
2021/03/03 00:19:28;;;;;;;;;;;2.50;99.90;;;;;;5075815;28;19912;-60
2021/03/03 00:21:54;;;;;;;;;;;2.50;99.90;;;;;;5094125;28;20412;-60
2021/03/03 00:24:20;;;;;;;;;;;2.50;99.90;;;;;;5093862;28;20338;-60
2021/03/03 00:26:46;;;;;;;;;;;2.40;99.90;;;;;;5093721;28;19973;-60
2021/03/03 00:29:12;;;;;;;;;;;2.40;99.90;;;;;;5093620;28;19920;-59
2021/03/03 00:31:38;;;;;;;;;;;2.40;99.90;;;;;;5093879;28;19919;-60
2021/03/03 00:34:04;;;;;;;;;;;2.30;99.90;;;;;;5093998;28;19912;-60
2021/03/03 00:36:30;;;;;;;;;;;2.30;99.90;;;;;;5093819;28;20397;-60
2021/03/03 00:38:56;;;;;;;;;;;2.20;99.90;;;;;;5093604;28;19981;-60
2021/03/03 00:41:21;;;;;;;;;;;2.30;99.90;;;;;;5093937;28;19961;-60
2021/03/03 00:43:47;;;;;;;;;;;2.30;99.90;;;;;;5093592;28;19912;-60
2021/03/03 00:46:14;;;;;;;;;;;2.30;99.90;;;;;;5093726;28;19919;-60
2021/03/03 00:48:40;;;;;;;;;;;2.40;99.90;;;;;;5093637;28;19916;-60
2021/03/03 00:51:06;;;;;;;;;;;2.40;99.90;;;;;;5093866;28;19919;-60
2021/03/03 00:53:32;;;;;;;;;;;2.40;99.90;;;;;;5093198;28;19931;-60
2021/03/03 01:02:04;;;;;;;;;;;2.40;99.90;;;;;;5099258;28;19915;-60
2021/03/03 01:04:30;;;;;;;;;;;2.30;99.90;;;;;;5093540;28;19916;-60
2021/03/03 01:06:55;;;;;;;;;;;2.20;99.90;;;;;;5093038;28;19927;-60
2021/03/03 01:09:22;;;;;;;;;;;2.30;99.90;;;;;;5074859;28;20258;-60
2021/03/03 01:11:48;;;;;;;;;;;2.30;99.90;;;;;;5074528;28;19912;-60
2021/03/03 01:14:15;;;;;;;;;;;2.30;99.90;;;;;;5093375;28;19908;-60
2021/03/03 01:16:41;;;;;;;;;;;2.30;99.90;;;;;;5074648;28;20397;-60
2021/03/03 01:19:07;;;;;;;;;;;2.20;99.90;;;;;;5092556;28;19912;-60
2021/03/03 01:21:33;;;;;;;;;;;2.30;99.90;;;;;;5092902;28;20395;-60
2021/03/03 01:23:59;;;;;;;;;;;2.10;99.90;;;;;;5093353;28;19908;-60
2021/03/03 01:26:25;;;;;;;;;;;2.20;99.90;;;;;;5093049;28;19927;-60
2021/03/03 01:28:51;;;;;;;;;;;2.20;99.90;;;;;;5093226;28;19969;-60
2021/03/03 01:31:17;;;;;;;;;;;2.20;99.90;;;;;;5092925;28;19961;-60
2021/03/03 01:33:43;;;;;;;;;;;2.20;99.90;;;;;;5092964;28;19919;-60
2021/03/03 01:36:09;;;;;;;;;;;2.30;99.90;;;;;;5093091;28;19920;-60
2021/03/03 01:38:35;;;;;;;;;;;2.30;99.90;;;;;;5092743;28;19962;-60
2021/03/03 01:41:00;;;;;;;;;;;2.30;99.90;;;;;;5092211;28;19928;-60
2021/03/03 01:43:30;;;;;;;;;;;2.20;99.90;;;;;;5092948;28;19908;-60
2021/03/03 01:45:56;;;;;;;;;;;2.20;99.90;;;;;;5092299;28;19912;-60
2021/03/03 01:48:22;;;;;;;;;;;2.20;99.90;;;;;;5093168;28;20363;-60
2021/03/03 01:50:47;;;;;;;;;;;2.30;99.90;;;;;;5073946;28;19919;-60
2021/03/03 01:53:13;;;;;;;;;;;2.20;99.90;;;;;;5092695;28;19912;-60
2021/03/03 01:55:39;;;;;;;;;;;2.20;99.90;;;;;;5092495;28;19915;-60
2021/03/03 01:58:05;;;;;;;;;;;2.20;99.90;;;;;;5092693;28;19912;-60
2021/03/03 02:00:31;;;;;;;;;;;2.20;99.90;;;;;;5092584;28;19957;-60
2021/03/03 02:02:57;;;;;;;;;;;2.20;99.90;;;;;;5091759;28;19962;-60
2021/03/03 02:05:24;;;;;;;;;;;2.20;99.90;;;;;;5092134;28;20345;-60
2021/03/03 02:07:59;;;;;;;;;;;2.20;99.90;;;;;;5092252;28;20312;-60
2021/03/03 02:10:37;;;;;;;;;;;2.30;99.90;;;;;;5074418;28;19908;-60
2021/03/03 02:13:23;;;;;;;;;;;2.30;99.90;;;;;;5074006;28;19923;-60
2021/03/03 02:15:49;;;;;;;;;;;2.30;99.90;;;;;;5091638;28;19915;-60
2021/03/03 02:18:15;;;;;;;;;;;2.30;99.90;;;;;;5074393;28;19904;-60
2021/03/03 02:20:56;;;;;;;;;;;2.30;99.90;;;;;;5074440;28;20003;-60
2021/03/03 02:23:40;;;;;;;;;;;2.30;99.90;;;;;;5092199;28;19919;-59
2021/03/03 02:26:06;;;;;;;;;;;2.40;99.90;;;;;;5091779;28;19923;-60
2021/03/03 02:28:32;;;;;;;;;;;2.40;99.90;;;;;;5074179;28;19912;-60
2021/03/03 02:30:58;;;;;;;;;;;2.30;99.90;;;;;;5074261;28;19916;-60
2021/03/03 02:33:24;;;;;;;;;;;2.30;99.90;;;;;;5092395;28;20352;-60
2021/03/03 02:35:50;;;;;;;;;;;2.30;99.90;;;;;;5092100;28;19912;-60
2021/03/03 02:38:16;;;;;;;;;;;2.40;99.90;;;;;;5074469;28;19908;-60
2021/03/03 02:40:42;;;;;;;;;;;2.30;99.90;;;;;;5074378;28;20319;-60
2021/03/03 02:43:12;;;;;;;;;;;2.40;99.90;;;;;;5092287;28;19971;-60
2021/03/03 02:45:38;;;;;;;;;;;2.40;99.90;;;;;;5073223;28;19945;-60
2021/03/03 02:48:04;;;;;;;;;;;2.30;99.90;;;;;;5091854;28;19912;-60
2021/03/03 02:50:30;;;;;;;;;;;2.40;99.90;;;;;;5074116;28;19911;-60
2021/03/03 02:52:57;;;;;;;;;;;2.40;99.90;;;;;;5077340;28;20357;-60
2021/03/03 02:55:23;;;;;;;;;;;2.40;99.90;;;;;;5095851;28;20288;-60
2021/03/03 02:57:49;;;;;;;;;;;2.40;99.90;;;;;;5096124;28;19918;-60
2021/03/03 03:00:16;;;;;;;;;;;2.40;99.90;;;;;;5077713;28;19919;-60
2021/03/03 03:02:44;;;;;;;;;;;2.50;99.90;;;;;;5088410;28;19915;-60
2021/03/03 03:05:10;;;;;;;;;;;2.50;99.90;;;;;;5077889;28;19907;-60
2021/03/03 03:07:37;;;;;;;;;;;2.60;99.90;;;;;;5077137;28;19916;-60
2021/03/03 03:10:03;;;;;;;;;;;2.60;99.90;;;;;;5095584;28;19916;-60
2021/03/03 03:12:29;;;;;;;;;;;2.50;99.90;;;;;;5095518;28;19913;-60
2021/03/03 03:14:55;;;;;;;;;;;2.50;99.90;;;;;;5077031;28;19915;-60
2021/03/03 03:17:21;;;;;;;;;;;2.50;99.90;;;;;;5077439;28;19954;-60
2021/03/03 03:19:47;;;;;;;;;;;2.60;99.90;;;;;;5077256;28;19908;-60
2021/03/03 03:22:13;;;;;;;;;;;2.50;99.90;;;;;;5077505;28;19908;-60
2021/03/03 03:24:39;;;;;;;;;;;2.50;99.90;;;;;;5095138;28;19911;-61
2021/03/03 03:27:05;;;;;;;;;;;2.50;99.90;;;;;;5077179;28;20754;-60
2021/03/03 03:29:32;;;;;;;;;;;2.50;99.90;;;;;;5077063;28;19916;-60
2021/03/03 03:31:58;;;;;;;;;;;2.50;99.90;;;;;;5095086;28;19923;-60
2021/03/03 03:34:24;;;;;;;;;;;2.50;99.90;;;;;;5076489;28;19904;-60
2021/03/03 03:36:49;;;;;;;;;;;2.50;99.90;;;;;;5094825;28;20361;-60
2021/03/03 03:39:15;;;;;;;;;;;2.40;99.90;;;;;;5077145;28;19908;-60
2021/03/03 03:41:41;;;;;;;;;;;2.40;99.90;;;;;;5094772;28;19912;-60
2021/03/03 03:44:08;;;;;;;;;;;2.50;99.90;;;;;;5093902;28;20452;-60
2021/03/03 03:46:34;;;;;;;;;;;2.60;99.90;;;;;;5095170;28;19915;-60
2021/03/03 03:49:00;;;;;;;;;;;2.60;99.90;;;;;;5094505;28;19908;-60
2021/03/03 03:51:26;;;;;;;;;;;2.60;99.90;;;;;;5076545;28;19950;-60
2021/03/03 03:53:52;;;;;;;;;;;2.50;99.90;;;;;;5094426;28;20268;-60
2021/03/03 03:56:18;;;;;;;;;;;2.50;99.90;;;;;;5076746;28;19908;-60
2021/03/03 03:58:44;;;;;;;;;;;2.50;99.90;;;;;;5095471;28;19912;-60
2021/03/03 04:01:10;;;;;;;;;;;2.50;99.90;;;;;;5094495;28;19955;-60
2021/03/03 04:03:35;;;;;;;;;;;2.50;99.90;;;;;;5093988;28;20353;-60
2021/03/03 04:06:01;;;;;;;;;;;2.60;99.90;;;;;;5094290;28;19931;-60
2021/03/03 04:08:27;;;;;;;;;;;2.60;99.90;;;;;;5093754;28;19916;-60
2021/03/03 04:10:53;;;;;;;;;;;2.70;99.90;;;;;;5094603;28;19965;-60
2021/03/03 04:13:19;;;;;;;;;;;2.60;99.90;;;;;;5094273;28;19919;-60
2021/03/03 04:15:45;;;;;;;;;;;2.50;99.90;;;;;;5094512;28;20314;-60
2021/03/03 04:18:11;;;;;;;;;;;2.60;99.90;;;;;;5094086;28;20774;-60
2021/03/03 04:20:41;;;;;;;;;;;2.60;99.90;;;;;;5076300;28;19915;-60
2021/03/03 04:23:10;;;;;;;;;;;2.50;99.90;;;;;;5076259;28;19908;-60
2021/03/03 04:25:36;;;;;;;;;;;2.60;99.90;;;;;;5094330;28;19908;-60
2021/03/03 04:28:03;;;;;;;;;;;2.60;99.90;;;;;;5076093;28;19927;-60
2021/03/03 04:30:28;;;;;;;;;;;2.60;99.90;;;;;;5094082;28;19919;-60
2021/03/03 04:32:54;;;;;;;;;;;2.60;99.90;;;;;;5093996;28;20369;-60
2021/03/03 04:35:20;;;;;;;;;;;2.50;99.90;;;;;;5094254;28;19912;-60
2021/03/03 04:37:46;;;;;;;;;;;2.60;99.90;;;;;;5094199;28;20319;-60
2021/03/03 04:40:12;;;;;;;;;;;2.60;99.90;;;;;;5093679;28;20276;-60
2021/03/03 04:42:38;;;;;;;;;;;2.60;99.90;;;;;;5075643;28;19908;-60
2021/03/03 04:45:05;;;;;;;;;;;2.60;99.90;;;;;;5093621;28;20322;-60
2021/03/03 04:47:31;;;;;;;;;;;2.50;99.90;;;;;;5093662;28;19927;-60
2021/03/03 04:49:57;;;;;;;;;;;2.70;99.90;;;;;;5093612;28;19912;-60
2021/03/03 04:52:23;;;;;;;;;;;2.70;99.90;;;;;;5093320;28;19934;-61
2021/03/03 04:54:49;;;;;;;;;;;2.60;99.90;;;;;;5093522;28;19919;-60
2021/03/03 04:57:15;;;;;;;;;;;2.70;99.90;;;;;;5093492;28;19919;-60
2021/03/03 04:59:41;;;;;;;;;;;2.80;99.90;;;;;;5093588;28;20077;-59
2021/03/03 05:02:07;;;;;;;;;;;2.80;99.90;;;;;;5093383;28;19919;-60
2021/03/03 05:04:32;;;;;;;;;;;2.80;99.90;;;;;;5093303;28;19912;-60
2021/03/03 05:06:58;;;;;;;;;;;2.70;99.90;;;;;;5093294;28;19973;-60
2021/03/03 05:09:24;;;;;;;;;;;2.70;99.90;;;;;;5093267;28;20357;-60
2021/03/03 05:11:50;;;;;;;;;;;2.80;99.90;;;;;;5074557;28;19916;-60
2021/03/03 05:14:16;;;;;;;;;;;2.70;99.90;;;;;;5092707;28;19919;-60
2021/03/03 05:16:42;;;;;;;;;;;2.60;99.90;;;;;;5093266;28;19919;-60
2021/03/03 05:19:08;;;;;;;;;;;2.70;99.90;;;;;;5093271;28;19912;-60
2021/03/03 05:21:35;;;;;;;;;;;2.70;99.90;;;;;;5093263;28;20353;-60
2021/03/03 05:24:01;;;;;;;;;;;2.60;99.90;;;;;;5092367;28;19920;-60
2021/03/03 05:26:26;;;;;;;;;;;2.60;99.90;;;;;;5093055;28;19916;-60
2021/03/03 05:28:52;;;;;;;;;;;2.60;99.90;;;;;;5091885;28;19926;-60
2021/03/03 05:31:18;;;;;;;;;;;2.70;99.90;;;;;;5089503;28;19927;-60
2021/03/03 05:33:44;;;;;;;;;;;2.80;99.90;;;;;;5092164;28;19920;-60
2021/03/03 05:36:10;;;;;;;;;;;2.80;99.90;;;;;;5091530;28;19915;-60
2021/03/03 05:38:37;;;;;;;;;;;2.80;99.90;;;;;;5091756;28;19916;-60
2021/03/03 05:41:03;;;;;;;;;;;2.80;99.90;;;;;;5073774;28;20003;-60
2021/03/03 05:43:38;;;;;;;;;;;2.80;99.90;;;;;;5073359;28;19904;-60
2021/03/03 05:46:04;;;;;;;;;;;2.70;99.90;;;;;;5090526;28;19919;-60
2021/03/03 05:48:30;;;;;;;;;;;2.80;99.90;;;;;;5091997;28;19916;-60
2021/03/03 05:51:00;;;;;;;;;;;2.90;99.90;;;;;;5092060;28;19949;-60
2021/03/03 05:53:26;;;;;;;;;;;2.90;99.90;;;;;;5091751;28;19904;-60
2021/03/03 05:55:56;;;;;;;;;;;2.90;99.90;;;;;;5091725;28;19912;-60
2021/03/03 05:58:22;;;;;;;;;;;2.80;99.90;;;;;;5091798;28;19916;-60
2021/03/03 06:00:49;;;;;;;;;;;2.80;99.90;;;;;;5090252;28;19908;-60
2021/03/03 06:03:16;;;;;;;;;;;2.80;99.90;;;;;;5091980;28;20296;-60
2021/03/03 06:05:41;;;;;;;;;;;2.90;99.90;;;;;;5073692;28;19919;-60
2021/03/03 06:08:07;;;;;;;;;;;2.90;99.90;;;;;;5091662;28;19912;-60
2021/03/03 06:10:33;;;;;;;;;;;2.80;99.90;;;;;;5091946;28;20360;-60
2021/03/03 06:12:59;;;;;;;;;;;2.80;99.90;;;;;;5092350;28;19908;-59
2021/03/03 06:15:26;;;;;;;;;;;2.80;99.90;;;;;;5091937;28;20457;-60
2021/03/03 06:17:52;;;;;;;;;;;2.70;99.90;;;;;;5073622;28;19987;-61
2021/03/03 06:20:18;;;;;;;;;;;2.80;99.90;;;;;;5091933;28;19908;-61
2021/03/03 06:22:44;;;;;;;;;;;2.80;99.90;;;;;;5072971;28;19916;-60
2021/03/03 06:25:20;;;;;;;;;;;2.80;99.90;;;;;;5091250;28;20365;-60
2021/03/03 06:27:46;;;;;;;;;;;2.80;99.90;;;;;;5095326;28;19920;-60
2021/03/03 06:30:15;;;;;;;;;;;2.80;99.90;;;;;;5095114;28;19930;-60
2021/03/03 06:32:53;;;;;;;;;;;2.80;99.90;;;;;;5076748;28;20371;-61
2021/03/03 06:35:20;;;;;;;;;;;2.70;99.90;;;;;;5095008;28;20273;-60
2021/03/03 06:37:53;;;;;;;;;;;2.80;99.90;;;;;;5094141;28;20288;-60
2021/03/03 06:40:19;;;;;;;;;;;2.90;99.90;;;;;;5093957;28;20364;-60
2021/03/03 06:42:45;;;;;;;;;;;2.80;99.90;;;;;;5076625;28;19915;-60
2021/03/03 06:45:11;;;;;;;;;;;3.00;99.90;;;;;;5077000;28;19912;-60
2021/03/03 06:47:45;;;;;;;;;;;2.90;99.90;;;;;;5076777;28;19923;-60
2021/03/03 06:50:12;;;;;;;;;;;2.80;99.80;;;;;;5093373;28;19908;-60
2021/03/03 06:52:41;;;;;;;;;;;2.80;99.70;;;;;;5095345;28;19915;-60
2021/03/03 06:55:07;;;;;;;;;;;2.90;99.90;;;;;;5077329;28;19908;-60
2021/03/03 06:57:33;;;;;;;;;;;2.90;99.70;;;;;;5094581;28;20234;-60
2021/03/03 06:59:59;;;;;;;;;;;3.00;99.60;;;;;;5095175;28;19987;-60
2021/03/03 07:02:31;;;;;;;;;;;3.00;99.40;;;;;;5095264;28;19961;-60
2021/03/03 07:04:57;;;;;;;;;;;3.00;99.20;;;;;;5094844;28;20231;-60
2021/03/03 07:07:23;;;;;;;;;;;3.10;99.00;;;;;;5095051;28;21209;-60
2021/03/03 07:09:53;;;;;;;;;;;3.10;98.80;;;;;;5095465;28;19916;-60
2021/03/03 07:12:20;;;;;;;;;;;3.10;98.50;;;;;;5075660;28;19908;-60
2021/03/03 07:14:58;;;;;;;;;;;3.20;98.60;;;;;;5094947;28;20238;-60
2021/03/03 07:17:30;;;;;;;;;;;3.10;98.90;;;;;;5094313;28;20258;-60
2021/03/03 07:20:00;;;;;;;;;;;3.00;99.00;;;;;;5092869;28;19904;-61
2021/03/03 07:22:26;;;;;;;;;;;3.20;98.80;;;;;;5093349;28;20277;-61
2021/03/03 07:24:52;;;;;;;;;;;3.30;98.50;;;;;;5095691;28;19926;-61
2021/03/03 07:27:19;;;;;;;;;;;3.20;98.50;;;;;;5077638;28;19920;-60
2021/03/03 07:29:49;;;;;;;;;;;3.10;98.60;;;;;;5077145;28;19919;-60
2021/03/03 07:32:15;;;;;;;;;;;3.00;98.80;;;;;;5095610;28;20284;-60
2021/03/03 07:34:41;;;;;;;;;;;3.00;98.70;;;;;;5095807;28;20361;-61
2021/03/03 07:37:07;;;;;;;;;;;3.10;98.80;;;;;;5095051;28;19965;-60
2021/03/03 07:39:33;;;;;;;;;;;3.20;98.50;;;;;;5059914;28;19904;-60
2021/03/03 07:41:59;;;;;;;;;;;3.10;98.50;;;;;;5077248;28;19927;-60
2021/03/03 07:44:25;;;;;;;;;;;3.10;98.60;;;;;;5095017;28;19904;-61
2021/03/03 07:46:51;;;;;;;;;;;3.20;98.40;;;;;;5095144;28;19961;-60
2021/03/03 07:49:21;;;;;;;;;;;3.30;98.60;;;;;;5095337;28;20062;-60
2021/03/03 07:51:47;;;;;;;;;;;3.30;98.40;;;;;;5095257;28;20383;-61
2021/03/03 07:54:13;;;;;;;;;;;3.30;98.50;;;;;;5095055;28;19908;-60
2021/03/03 07:56:39;;;;;;;;;;;3.30;98.20;;;;;;5094990;28;19915;-60
2021/03/03 07:59:05;;;;;;;;;;;3.40;98.20;;;;;;5077245;28;19904;-60
2021/03/03 08:01:31;;;;;;;;;;;3.40;98.10;;;;;;5076925;28;19927;-60
2021/03/03 08:03:57;;;;;;;;;;;3.40;98.00;;;;;;5076946;28;19911;-60
2021/03/03 08:06:24;;;;;;;;;;;3.40;98.10;;;;;;5094645;28;20061;-60
2021/03/03 08:09:05;;;;;;;;;;;3.40;98.00;;;;;;5095124;28;19908;-60
2021/03/03 08:11:34;;;;;;;;;;;3.30;98.30;;;;;;5094677;28;19912;-60
2021/03/03 08:14:00;;;;;;;;;;;3.40;98.40;;;;;;5075697;28;20098;-60
2021/03/03 08:16:26;;;;;;;;;;;3.50;98.20;;;;;;5093993;28;21160;-60
2021/03/03 08:18:53;;;;;;;;;;;3.50;98.20;;;;;;5076523;28;19927;-61
2021/03/03 08:21:25;;;;;;;;;;;3.50;97.90;;;;;;5094024;28;20411;-60
2021/03/03 08:23:51;;;;;;;;;;;3.60;97.90;;;;;;5094289;28;20272;-60
2021/03/03 08:26:17;;;;;;;;;;;3.50;97.90;;;;;;5093417;28;19952;-60
2021/03/03 08:29:11;;;;;;;;;;;3.50;98.30;;;;;;5092378;28;19935;-60
2021/03/03 08:31:39;;;;;;;;;;;3.50;98.30;;;;;;5091475;28;19920;-60
2021/03/03 08:34:06;;;;;;;;;;;3.60;97.90;;;;;;5093549;28;19924;-60
2021/03/03 08:36:33;;;;;;;;;;;3.50;98.00;;;;;;5093506;28;20396;-60
2021/03/03 08:38:58;;;;;;;;;;;3.60;98.00;;;;;;5092942;28;19919;-61
2021/03/03 08:44:15;;;;;;;;;;;3.70;97.20;;;;;;5093706;28;20284;-60
2021/03/03 08:46:41;;;;;;;;;;;3.60;97.40;;;;;;5089556;28;19921;-60
2021/03/03 08:49:07;;;;;;;;;;;3.50;97.40;;;;;;5093488;28;20268;-61
2021/03/03 08:51:40;;;;;;;;;;;3.50;98.00;;;;;;5093168;28;19920;-60
2021/03/03 08:54:06;;;;;;;;;;;3.60;97.50;;;;;;5074855;28;19919;-60
2021/03/03 08:56:48;;;;;;;;;;;3.70;97.70;;;;;;5093147;28;20292;-61
2021/03/03 08:59:33;;;;;;;;;;;3.80;97.10;;;;;;5074981;28;19912;-61
2021/03/03 09:02:02;;;;;;;;;;;3.80;97.30;;;;;;5091314;28;19912;-60
2021/03/03 09:04:29;;;;;;;;;;;3.80;96.90;;;;;;5093166;28;20285;-61
2021/03/03 09:06:56;;;;;;;;;;;3.80;96.90;;;;;;5093300;28;19923;-60
2021/03/03 09:09:22;;;;;;;;;;;3.70;96.80;;;;;;5093045;28;19920;-60
2021/03/03 09:11:56;;;;;;;;;;;3.70;96.50;;;;;;5093264;28;20414;-60
2021/03/03 09:14:22;;;;;;;;;;;3.60;96.80;;;;;;5090654;28;19919;-60
2021/03/03 09:17:01;;;;;;;;;;;3.50;97.40;;;;;;5073926;28;19996;-60
2021/03/03 09:19:27;;;;;;;;;;;3.50;97.60;;;;;;5075129;28;19908;-60
2021/03/03 09:21:53;;;;;;;;;;;3.70;97.10;;;;;;5093074;28;19920;-60
2021/03/03 09:24:19;;;;;;;;;;;3.60;96.90;;;;;;5092996;28;19913;-60
2021/03/03 09:26:45;;;;;;;;;;;3.60;96.90;;;;;;5093086;28;20418;-60
2021/03/03 09:29:24;;;;;;;;;;;3.70;96.90;;;;;;5093361;28;20269;-60
2021/03/03 09:31:50;;;;;;;;;;;3.60;96.90;;;;;;5097753;28;19920;-60
2021/03/03 09:34:16;;;;;;;;;;;3.50;97.30;;;;;;5076332;28;19912;-60
2021/03/03 09:36:42;;;;;;;;;;;3.60;97.10;;;;;;5074656;28;19916;-60
2021/03/03 09:39:08;;;;;;;;;;;3.60;97.00;;;;;;5092916;28;19912;-60
2021/03/03 09:41:35;;;;;;;;;;;3.50;97.50;;;;;;5074141;28;20288;-60
2021/03/03 09:44:01;;;;;;;;;;;3.30;97.80;;;;;;5092771;28;20276;-61
2021/03/03 09:46:27;;;;;;;;;;;3.30;97.90;;;;;;5092414;28;19919;-60
2021/03/03 09:48:53;;;;;;;;;;;3.20;98.20;;;;;;5092454;28;19932;-60
2021/03/03 09:51:19;;;;;;;;;;;3.20;98.30;;;;;;5092671;28;20326;-60
2021/03/03 09:53:54;;;;;;;;;;;3.20;98.10;;;;;;5074277;28;19923;-60
2021/03/03 09:56:27;;;;;;;;;;;3.40;97.50;;;;;;5092480;28;20296;-60
2021/03/03 09:58:53;;;;;;;;;;;3.50;97.40;;;;;;5092278;28;19928;-60
2021/03/03 10:01:19;;;;;;;;;;;3.60;97.50;;;;;;5070227;28;20360;-60
2021/03/03 10:03:44;;;;;;;;;;;3.60;97.10;;;;;;5074004;28;19912;-60
2021/03/03 10:06:10;;;;;;;;;;;3.50;96.80;;;;;;5073767;28;19920;-60
2021/03/03 10:08:36;;;;;;;;;;;3.70;97.00;;;;;;5091828;28;19920;-60
2021/03/03 10:11:02;;;;;;;;;;;3.80;96.50;;;;;;5073740;28;19912;-60
2021/03/03 10:13:28;;;;;;;;;;;3.70;96.30;;;;;;5091935;28;19912;-60
2021/03/03 10:15:55;;;;;;;;;;;3.60;96.90;;;;;;5091713;28;19920;-61
2021/03/03 10:18:21;;;;;;;;;;;3.50;97.10;;;;;;5074517;28;20269;-60
2021/03/03 10:20:51;;;;;;;;;;;3.40;97.40;;;;;;5091436;28;19923;-60
2021/03/03 10:23:23;;;;;;;;;;;3.30;97.80;;;;;;5075297;28;19912;-60
2021/03/03 10:25:50;;;;;;;;;;;3.50;97.60;;;;;;5092540;28;19909;-60
2021/03/03 10:28:20;;;;;;;;;;;3.60;96.90;;;;;;5074657;28;19924;-60
2021/03/03 10:30:47;;;;;;;;;;;3.60;97.00;;;;;;5087933;28;19923;-60
2021/03/03 10:33:33;;;;;;;;;;;3.30;97.50;;;;;;5092112;28;19916;-60
2021/03/03 10:36:02;;;;;;;;;;;3.40;97.30;;;;;;5076956;28;19912;-60
2021/03/03 10:38:28;;;;;;;;;;;3.20;97.50;;;;;;5090398;28;19919;-60
2021/03/03 10:40:55;;;;;;;;;;;3.20;97.70;;;;;;5092087;28;19916;-60
2021/03/03 10:43:22;;;;;;;;;;;3.40;97.20;;;;;;5073845;28;19908;-60
2021/03/03 10:45:48;;;;;;;;;;;3.30;97.30;;;;;;5091340;28;19916;-60
2021/03/03 10:48:25;;;;;;;;;;;3.50;97.10;;;;;;5091997;28;19931;-59
2021/03/03 10:50:51;;;;;;;;;;;3.10;97.70;;;;;;5072830;28;19912;-60
2021/03/03 10:53:17;;;;;;;;;;;3.10;97.80;;;;;;5091923;28;20422;-60
2021/03/03 10:55:43;;;;;;;;;;;3.10;98.10;;;;;;5091360;28;20361;-60
2021/03/03 10:58:09;;;;;;;;;;;3.20;97.70;;;;;;5091733;28;19916;-60
2021/03/03 11:00:53;;;;;;;;;;;3.20;97.80;;;;;;5073260;28;19998;-60
2021/03/03 11:03:19;;;;;;;;;;;3.20;97.90;;;;;;5088828;28;19912;-60
2021/03/03 11:05:50;;;;;;;;;;;3.40;97.80;;;;;;5072246;28;20380;-60
2021/03/03 11:08:16;;;;;;;;;;;3.60;97.30;;;;;;5073666;28;19927;-60
2021/03/03 11:10:42;;;;;;;;;;;3.40;97.30;;;;;;5091404;28;20002;-60
2021/03/03 11:13:08;;;;;;;;;;;3.50;97.50;;;;;;5093988;28;19916;-61
2021/03/03 11:15:34;;;;;;;;;;;3.60;97.00;;;;;;5076683;28;19912;-60
2021/03/03 11:18:00;;;;;;;;;;;3.60;96.70;;;;;;5095388;28;19970;-60
2021/03/03 11:20:25;;;;;;;;;;;3.50;97.00;;;;;;5094549;28;19998;-60
2021/03/03 11:22:51;;;;;;;;;;;3.20;97.50;;;;;;5095502;28;19919;-61
2021/03/03 11:25:17;;;;;;;;;;;3.50;97.30;;;;;;5095682;28;19912;-60
2021/03/03 11:27:43;;;;;;;;;;;3.50;97.30;;;;;;5094800;28;19971;-60
2021/03/03 11:30:09;;;;;;;;;;;3.40;97.10;;;;;;5095556;28;19931;-60
2021/03/03 11:32:35;;;;;;;;;;;3.40;97.20;;;;;;5095549;28;19912;-61
2021/03/03 11:35:01;;;;;;;;;;;3.40;97.10;;;;;;5095094;28;19915;-60
2021/03/03 11:37:27;;;;;;;;;;;3.40;97.10;;;;;;5095223;28;20003;-60
2021/03/03 11:39:54;;;;;;;;;;;3.30;97.50;;;;;;5094019;28;19931;-60
2021/03/03 11:42:19;;;;;;;;;;;3.30;97.90;;;;;;5092283;28;19913;-60
2021/03/03 11:44:45;;;;;;;;;;;3.30;97.80;;;;;;5094313;28;19951;-60
2021/03/03 11:47:11;;;;;;;;;;;3.30;97.40;;;;;;5095376;28;20368;-60
2021/03/03 11:49:37;;;;;;;;;;;3.50;97.20;;;;;;5087792;28;19966;-60
2021/03/03 11:52:03;;;;;;;;;;;3.50;97.10;;;;;;5094749;28;19912;-60
2021/03/03 11:54:29;;;;;;;;;;;3.50;97.10;;;;;;5094909;28;19916;-60
2021/03/03 11:56:55;;;;;;;;;;;3.40;97.20;;;;;;5094296;28;19966;-60
2021/03/03 11:59:21;;;;;;;;;;;3.30;97.40;;;;;;5094970;28;19923;-60
2021/03/03 12:01:51;;;;;;;;;;;3.40;97.10;;;;;;5094003;28;19939;-60
2021/03/03 12:04:17;;;;;;;;;;;3.60;96.80;;;;;;5092946;28;19917;-60
2021/03/03 12:06:42;;;;;;;;;;;3.70;96.40;;;;;;5095029;28;20343;-61
2021/03/03 12:09:08;;;;;;;;;;;3.70;96.20;;;;;;5094070;28;20007;-60
2021/03/03 12:11:34;;;;;;;;;;;3.60;96.00;;;;;;5093769;28;20412;-60
2021/03/03 12:14:00;;;;;;;;;;;3.70;96.10;;;;;;5093435;28;19916;-60
2021/03/03 12:16:26;;;;;;;;;;;3.60;96.40;;;;;;5096183;28;19916;-60
2021/03/03 12:18:52;;;;;;;;;;;3.50;96.60;;;;;;5094631;28;19920;-60
2021/03/03 12:21:18;;;;;;;;;;;3.80;95.50;;;;;;5076035;28;19912;-61
2021/03/03 12:23:44;;;;;;;;;;;3.90;95.80;;;;;;5094131;28;19935;-61
2021/03/03 12:26:10;;;;;;;;;;;4.00;95.60;;;;;;5094438;28;19935;-60
2021/03/03 12:28:36;;;;;;;;;;;3.90;95.80;;;;;;5092348;28;20402;-60
2021/03/03 12:31:02;;;;;;;;;;;3.80;95.90;;;;;;5093316;28;19925;-61
2021/03/03 12:33:28;;;;;;;;;;;3.80;95.70;;;;;;5094370;28;19912;-60
2021/03/03 12:35:54;;;;;;;;;;;3.60;96.30;;;;;;5093761;28;19923;-60
2021/03/03 12:38:21;;;;;;;;;;;3.60;96.10;;;;;;5075406;28;20127;-60
2021/03/03 12:40:47;;;;;;;;;;;3.60;96.20;;;;;;5093567;28;20311;-60
2021/03/03 12:43:13;;;;;;;;;;;3.70;95.90;;;;;;5093806;28;19920;-60
2021/03/03 12:45:39;;;;;;;;;;;3.70;96.00;;;;;;5093434;28;19912;-60
2021/03/03 12:48:05;;;;;;;;;;;3.70;96.30;;;;;;5093224;28;20304;-61
2021/03/03 12:50:31;;;;;;;;;;;3.80;96.60;;;;;;5093165;28;19916;-61
2021/03/03 12:52:57;;;;;;;;;;;3.50;96.20;;;;;;5092536;28;20023;-60
2021/03/03 12:55:23;;;;;;;;;;;3.70;96.30;;;;;;5093478;28;19920;-60
2021/03/03 12:57:49;;;;;;;;;;;3.70;96.30;;;;;;5093409;28;19913;-60
2021/03/03 13:00:15;;;;;;;;;;;3.70;96.70;;;;;;5093225;28;19985;-60
2021/03/03 13:02:44;;;;;;;;;;;3.50;96.80;;;;;;5093717;28;19916;-60
2021/03/03 13:05:10;;;;;;;;;;;3.60;97.00;;;;;;5075620;28;19995;-60
2021/03/03 13:07:36;;;;;;;;;;;3.80;96.50;;;;;;5093984;28;19939;-60
2021/03/03 13:10:03;;;;;;;;;;;3.60;96.80;;;;;;5090894;28;19932;-60
2021/03/03 13:12:29;;;;;;;;;;;3.80;97.00;;;;;;5074106;28;19912;-60
2021/03/03 13:14:54;;;;;;;;;;;4.10;96.00;;;;;;5092417;28;19947;-61
2021/03/03 13:17:20;;;;;;;;;;;4.10;95.70;;;;;;5092608;28;20353;-60
2021/03/03 13:19:46;;;;;;;;;;;4.20;95.40;;;;;;5092493;28;19919;-60
2021/03/03 13:22:12;;;;;;;;;;;4.30;95.30;;;;;;5091865;28;19912;-60
2021/03/03 13:24:38;;;;;;;;;;;4.00;96.20;;;;;;5090475;28;19973;-60
2021/03/03 13:27:04;;;;;;;;;;;4.20;96.00;;;;;;5091212;28;19977;-60
2021/03/03 13:29:31;;;;;;;;;;;4.10;95.80;;;;;;5091933;28;20377;-60
2021/03/03 13:31:59;;;;;;;;;;;3.80;96.10;;;;;;5090534;28;19916;-60
2021/03/03 13:34:28;;;;;;;;;;;3.70;96.60;;;;;;5072866;28;19958;-60
2021/03/03 13:36:54;;;;;;;;;;;3.90;96.10;;;;;;5091093;28;19912;-61
2021/03/03 13:39:20;;;;;;;;;;;3.80;96.10;;;;;;5092338;28;19959;-60
2021/03/03 13:41:46;;;;;;;;;;;3.90;96.20;;;;;;5091503;28;19962;-59
2021/03/03 13:44:12;;;;;;;;;;;4.00;96.00;;;;;;5091607;28;20006;-61
2021/03/03 13:46:38;;;;;;;;;;;4.00;96.10;;;;;;5091175;28;20276;-60
2021/03/03 13:49:04;;;;;;;;;;;4.10;95.70;;;;;;5073489;28;19979;-60
2021/03/03 13:51:30;;;;;;;;;;;4.00;96.00;;;;;;5091981;28;20379;-60
2021/03/03 13:53:56;;;;;;;;;;;4.00;96.10;;;;;;5090693;28;20380;-61
2021/03/03 13:56:22;;;;;;;;;;;3.90;96.30;;;;;;5090903;28;19912;-61
2021/03/03 13:58:47;;;;;;;;;;;3.90;96.40;;;;;;5091133;28;19924;-61
2021/03/03 14:01:13;;;;;;;;;;;3.80;96.60;;;;;;5090937;28;19939;-61
2021/03/03 14:03:39;;;;;;;;;;;4.00;96.40;;;;;;5092326;28;19916;-60
2021/03/03 14:06:05;;;;;;;;;;;4.00;96.20;;;;;;5090807;28;19924;-61
2021/03/03 14:08:31;;;;;;;;;;;3.90;96.40;;;;;;5090729;28;19924;-61
2021/03/03 14:10:57;;;;;;;;;;;4.10;96.00;;;;;;5091822;28;19923;-61
2021/03/03 14:13:25;;;;;;;;;;;4.10;95.90;;;;;;5093218;28;19927;-60
2021/03/03 14:15:51;;;;;;;;;;;3.90;96.40;;;;;;5092317;28;19912;-61
2021/03/03 14:18:17;;;;;;;;;;;3.80;96.40;;;;;;5092054;28;19923;-61
2021/03/03 14:20:43;;;;;;;;;;;3.70;96.70;;;;;;5094661;28;19986;-61
2021/03/03 14:23:09;;;;;;;;;;;3.60;96.90;;;;;;5083999;28;19917;-61
2021/03/03 14:25:35;;;;;;;;;;;3.70;96.90;;;;;;5091396;28;19975;-61
2021/03/03 14:28:00;;;;;;;;;;;3.50;97.20;;;;;;5089634;28;20319;-60
2021/03/03 14:30:26;;;;;;;;;;;3.60;97.40;;;;;;5090581;28;20384;-60
2021/03/03 14:32:52;;;;;;;;;;;3.60;97.30;;;;;;5091858;28;19948;-60
2021/03/03 14:35:18;;;;;;;;;;;3.40;97.70;;;;;;5091718;28;20261;-61